sensor_id;sensor_type;location;lat;lon;timestamp;temperature;humidity
52267;DHT22;38223;50.940;4.034;2022-07-10T00:02:08;17.20;99.90
52267;DHT22;38223;50.940;4.034;2022-07-10T00:04:40;17.30;99.90
52267;DHT22;38223;50.940;4.034;2022-07-10T00:07:13;17.30;99.90
52267;DHT22;38223;50.940;4.034;2022-07-10T00:09:45;17.00;99.90
52267;DHT22;38223;50.940;4.034;2022-07-10T00:12:18;17.00;99.90
52267;DHT22;38223;50.940;4.034;2022-07-10T00:15:00;16.80;99.90
52267;DHT22;38223;50.940;4.034;2022-07-10T00:17:34;16.70;99.90
52267;DHT22;38223;50.940;4.034;2022-07-10T00:20:06;16.80;99.90
52267;DHT22;38223;50.940;4.034;2022-07-10T00:22:42;16.60;99.90
52267;DHT22;38223;50.940;4.034;2022-07-10T00:25:15;16.50;99.90
52267;DHT22;38223;50.940;4.034;2022-07-10T00:27:48;16.60;99.90
52267;DHT22;38223;50.940;4.034;2022-07-10T00:30:21;16.70;99.90
52267;DHT22;38223;50.940;4.034;2022-07-10T00:32:53;16.60;99.90
52267;DHT22;38223;50.940;4.034;2022-07-10T00:35:29;16.60;99.90
52267;DHT22;38223;50.940;4.034;2022-07-10T00:38:01;16.70;99.90
52267;DHT22;38223;50.940;4.034;2022-07-10T00:40:35;16.70;99.90
52267;DHT22;38223;50.940;4.034;2022-07-10T00:43:11;16.60;99.90
52267;DHT22;38223;50.940;4.034;2022-07-10T00:45:48;16.50;99.90
52267;DHT22;38223;50.940;4.034;2022-07-10T00:48:20;16.50;99.90
52267;DHT22;38223;50.940;4.034;2022-07-10T00:50:51;16.60;99.90
52267;DHT22;38223;50.940;4.034;2022-07-10T00:53:24;16.50;99.90
52267;DHT22;38223;50.940;4.034;2022-07-10T00:55:56;16.70;99.90
52267;DHT22;38223;50.940;4.034;2022-07-10T00:58:33;16.50;99.90
52267;DHT22;38223;50.940;4.034;2022-07-10T01:01:06;16.50;99.90
52267;DHT22;38223;50.940;4.034;2022-07-10T01:03:38;16.50;99.90
52267;DHT22;38223;50.940;4.034;2022-07-10T01:06:10;16.50;99.90
52267;DHT22;38223;50.940;4.034;2022-07-10T01:08:43;16.50;99.90
52267;DHT22;38223;50.940;4.034;2022-07-10T01:11:15;16.40;99.90
52267;DHT22;38223;50.940;4.034;2022-07-10T01:13:50;16.30;99.90
52267;DHT22;38223;50.940;4.034;2022-07-10T01:16:24;16.40;99.90
52267;DHT22;38223;50.940;4.034;2022-07-10T01:19:00;16.60;99.90
52267;DHT22;38223;50.940;4.034;2022-07-10T01:21:31;16.80;99.90
52267;DHT22;38223;50.940;4.034;2022-07-10T01:24:09;16.60;99.90
52267;DHT22;38223;50.940;4.034;2022-07-10T01:26:42;16.60;99.90
52267;DHT22;38223;50.940;4.034;2022-07-10T01:29:12;16.50;99.90
52267;DHT22;38223;50.940;4.034;2022-07-10T01:31:43;16.40;99.90
52267;DHT22;38223;50.940;4.034;2022-07-10T01:34:17;16.20;99.90
52267;DHT22;38223;50.940;4.034;2022-07-10T01:36:49;16.20;99.90
52267;DHT22;38223;50.940;4.034;2022-07-10T01:39:20;16.30;99.90
52267;DHT22;38223;50.940;4.034;2022-07-10T01:41:56;16.20;99.90
52267;DHT22;38223;50.940;4.034;2022-07-10T01:44:25;16.10;99.90
52267;DHT22;38223;50.940;4.034;2022-07-10T01:47:00;16.00;99.90
52267;DHT22;38223;50.940;4.034;2022-07-10T01:49:48;16.00;99.90
52267;DHT22;38223;50.940;4.034;2022-07-10T01:52:18;16.10;99.90
52267;DHT22;38223;50.940;4.034;2022-07-10T01:54:50;16.10;99.90
52267;DHT22;38223;50.940;4.034;2022-07-10T01:57:27;16.10;99.90
52267;DHT22;38223;50.940;4.034;2022-07-10T01:59:59;16.20;99.90
52267;DHT22;38223;50.940;4.034;2022-07-10T02:02:34;16.20;99.90
52267;DHT22;38223;50.940;4.034;2022-07-10T02:05:07;16.20;99.90
52267;DHT22;38223;50.940;4.034;2022-07-10T02:07:40;16.10;99.90
52267;DHT22;38223;50.940;4.034;2022-07-10T02:10:16;16.10;99.90
52267;DHT22;38223;50.940;4.034;2022-07-10T02:12:43;16.10;99.90
52267;DHT22;38223;50.940;4.034;2022-07-10T02:15:13;16.10;99.90
52267;DHT22;38223;50.940;4.034;2022-07-10T02:17:43;16.10;99.90
52267;DHT22;38223;50.940;4.034;2022-07-10T02:20:14;16.10;99.90
52267;DHT22;38223;50.940;4.034;2022-07-10T02:23:04;16.10;99.90
52267;DHT22;38223;50.940;4.034;2022-07-10T02:25:37;16.30;99.90
52267;DHT22;38223;50.940;4.034;2022-07-10T02:28:11;16.30;99.90
52267;DHT22;38223;50.940;4.034;2022-07-10T02:30:43;16.20;99.90
52267;DHT22;38223;50.940;4.034;2022-07-10T02:33:18;16.10;99.90
52267;DHT22;38223;50.940;4.034;2022-07-10T02:35:48;15.90;99.90
52267;DHT22;38223;50.940;4.034;2022-07-10T02:38:24;16.00;99.90
52267;DHT22;38223;50.940;4.034;2022-07-10T02:40:53;16.00;99.90
52267;DHT22;38223;50.940;4.034;2022-07-10T02:43:28;16.00;99.90
52267;DHT22;38223;50.940;4.034;2022-07-10T02:45:57;16.00;99.90
52267;DHT22;38223;50.940;4.034;2022-07-10T02:48:31;15.90;99.90
52267;DHT22;38223;50.940;4.034;2022-07-10T02:51:02;16.00;99.90
52267;DHT22;38223;50.940;4.034;2022-07-10T02:53:36;16.20;99.90
52267;DHT22;38223;50.940;4.034;2022-07-10T02:56:07;16.00;99.90
52267;DHT22;38223;50.940;4.034;2022-07-10T02:58:39;15.90;99.90
52267;DHT22;38223;50.940;4.034;2022-07-10T03:01:14;15.80;99.90
52267;DHT22;38223;50.940;4.034;2022-07-10T03:03:50;15.80;99.90
52267;DHT22;38223;50.940;4.034;2022-07-10T03:06:18;15.90;99.90
52267;DHT22;38223;50.940;4.034;2022-07-10T03:08:51;15.90;99.90
52267;DHT22;38223;50.940;4.034;2022-07-10T03:11:23;15.90;99.90
52267;DHT22;38223;50.940;4.034;2022-07-10T03:13:52;15.80;99.90
52267;DHT22;38223;50.940;4.034;2022-07-10T03:16:26;15.80;99.90
52267;DHT22;38223;50.940;4.034;2022-07-10T03:18:55;15.70;99.90
52267;DHT22;38223;50.940;4.034;2022-07-10T03:21:24;15.50;99.90
52267;DHT22;38223;50.940;4.034;2022-07-10T03:23:59;15.60;99.90
52267;DHT22;38223;50.940;4.034;2022-07-10T03:26:29;15.60;99.90
52267;DHT22;38223;50.940;4.034;2022-07-10T03:29:00;15.60;99.90
52267;DHT22;38223;50.940;4.034;2022-07-10T03:31:34;15.70;99.90
52267;DHT22;38223;50.940;4.034;2022-07-10T03:34:04;15.80;99.90
52267;DHT22;38223;50.940;4.034;2022-07-10T03:36:34;15.80;99.90
52267;DHT22;38223;50.940;4.034;2022-07-10T03:39:05;16.00;99.90
52267;DHT22;38223;50.940;4.034;2022-07-10T03:41:36;16.00;99.90
52267;DHT22;38223;50.940;4.034;2022-07-10T03:44:12;15.80;99.90
52267;DHT22;38223;50.940;4.034;2022-07-10T03:46:45;16.00;99.90
52267;DHT22;38223;50.940;4.034;2022-07-10T03:49:20;16.10;99.90
52267;DHT22;38223;50.940;4.034;2022-07-10T03:51:49;16.10;99.90
52267;DHT22;38223;50.940;4.034;2022-07-10T03:54:20;16.20;99.90
52267;DHT22;38223;50.940;4.034;2022-07-10T03:56:56;16.10;99.90
52267;DHT22;38223;50.940;4.034;2022-07-10T03:59:41;16.20;99.90
52267;DHT22;38223;50.940;4.034;2022-07-10T04:02:17;16.10;99.90
52267;DHT22;38223;50.940;4.034;2022-07-10T04:04:47;16.10;99.90
52267;DHT22;38223;50.940;4.034;2022-07-10T04:07:25;16.20;99.90
52267;DHT22;38223;50.940;4.034;2022-07-10T04:09:53;16.30;99.90
52267;DHT22;38223;50.940;4.034;2022-07-10T04:12:27;16.20;99.90
52267;DHT22;38223;50.940;4.034;2022-07-10T04:14:56;16.10;99.90
52267;DHT22;38223;50.940;4.034;2022-07-10T04:17:30;16.30;99.90
52267;DHT22;38223;50.940;4.034;2022-07-10T04:20:01;16.40;99.90
52267;DHT22;38223;50.940;4.034;2022-07-10T04:22:37;16.40;99.90
52267;DHT22;38223;50.940;4.034;2022-07-10T04:25:08;16.30;99.90
52267;DHT22;38223;50.940;4.034;2022-07-10T04:27:43;16.30;99.90
52267;DHT22;38223;50.940;4.034;2022-07-10T04:30:15;16.20;99.90
52267;DHT22;38223;50.940;4.034;2022-07-10T04:32:50;16.00;99.90
52267;DHT22;38223;50.940;4.034;2022-07-10T04:35:18;15.60;99.90
52267;DHT22;38223;50.940;4.034;2022-07-10T04:37:51;15.60;99.90
52267;DHT22;38223;50.940;4.034;2022-07-10T04:40:21;15.60;99.90
52267;DHT22;38223;50.940;4.034;2022-07-10T04:42:56;15.80;99.90
52267;DHT22;38223;50.940;4.034;2022-07-10T04:45:29;15.60;99.90
52267;DHT22;38223;50.940;4.034;2022-07-10T04:47:59;15.40;99.90
52267;DHT22;38223;50.940;4.034;2022-07-10T04:50:29;15.30;99.90
52267;DHT22;38223;50.940;4.034;2022-07-10T04:53:00;15.30;99.90
52267;DHT22;38223;50.940;4.034;2022-07-10T04:55:32;15.40;99.90
52267;DHT22;38223;50.940;4.034;2022-07-10T04:58:04;15.40;99.90
52267;DHT22;38223;50.940;4.034;2022-07-10T05:00:39;15.50;99.90
52267;DHT22;38223;50.940;4.034;2022-07-10T05:03:11;15.70;99.90
52267;DHT22;38223;50.940;4.034;2022-07-10T05:05:47;15.90;99.90
52267;DHT22;38223;50.940;4.034;2022-07-10T05:08:16;15.80;99.90
52267;DHT22;38223;50.940;4.034;2022-07-10T05:10:48;15.70;99.90
52267;DHT22;38223;50.940;4.034;2022-07-10T05:13:21;15.70;99.90
52267;DHT22;38223;50.940;4.034;2022-07-10T05:15:54;15.70;99.90
52267;DHT22;38223;50.940;4.034;2022-07-10T05:18:25;15.60;99.90
52267;DHT22;38223;50.940;4.034;2022-07-10T05:20:59;15.90;99.90
52267;DHT22;38223;50.940;4.034;2022-07-10T05:23:29;16.10;99.90
52267;DHT22;38223;50.940;4.034;2022-07-10T05:26:02;16.10;99.90
52267;DHT22;38223;50.940;4.034;2022-07-10T05:28:37;16.00;99.90
52267;DHT22;38223;50.940;4.034;2022-07-10T05:31:11;15.80;99.90
52267;DHT22;38223;50.940;4.034;2022-07-10T05:33:43;15.90;99.90
52267;DHT22;38223;50.940;4.034;2022-07-10T05:36:17;15.90;99.90
52267;DHT22;38223;50.940;4.034;2022-07-10T05:38:49;15.80;99.90
52267;DHT22;38223;50.940;4.034;2022-07-10T05:41:21;15.90;99.90
52267;DHT22;38223;50.940;4.034;2022-07-10T05:43:54;15.90;99.90
52267;DHT22;38223;50.940;4.034;2022-07-10T05:46:27;16.00;99.90
52267;DHT22;38223;50.940;4.034;2022-07-10T05:48:59;16.30;99.90
52267;DHT22;38223;50.940;4.034;2022-07-10T05:51:31;16.50;99.90
52267;DHT22;38223;50.940;4.034;2022-07-10T05:54:00;16.80;99.90
52267;DHT22;38223;50.940;4.034;2022-07-10T05:56:34;17.10;99.90
52267;DHT22;38223;50.940;4.034;2022-07-10T05:59:03;17.10;99.90
52267;DHT22;38223;50.940;4.034;2022-07-10T06:01:37;17.20;99.90
52267;DHT22;38223;50.940;4.034;2022-07-10T06:04:09;17.20;99.90
52267;DHT22;38223;50.940;4.034;2022-07-10T06:06:43;17.20;99.90
52267;DHT22;38223;50.940;4.034;2022-07-10T06:09:12;16.90;99.90
52267;DHT22;38223;50.940;4.034;2022-07-10T06:11:48;16.80;99.90
52267;DHT22;38223;50.940;4.034;2022-07-10T06:14:17;17.00;99.90
52267;DHT22;38223;50.940;4.034;2022-07-10T06:16:53;16.80;99.90
52267;DHT22;38223;50.940;4.034;2022-07-10T06:19:20;16.70;99.90
52267;DHT22;38223;50.940;4.034;2022-07-10T06:21:51;16.80;99.90
52267;DHT22;38223;50.940;4.034;2022-07-10T06:24:43;17.10;99.90
52267;DHT22;38223;50.940;4.034;2022-07-10T06:27:12;17.30;99.90
52267;DHT22;38223;50.940;4.034;2022-07-10T06:29:47;17.40;99.90
52267;DHT22;38223;50.940;4.034;2022-07-10T06:32:16;17.70;99.90
52267;DHT22;38223;50.940;4.034;2022-07-10T06:34:51;17.70;99.90
52267;DHT22;38223;50.940;4.034;2022-07-10T06:37:25;17.70;99.90
52267;DHT22;38223;50.940;4.034;2022-07-10T06:39:59;17.40;99.90
52267;DHT22;38223;50.940;4.034;2022-07-10T06:42:32;17.60;99.90
52267;DHT22;38223;50.940;4.034;2022-07-10T06:45:01;18.10;99.90
52267;DHT22;38223;50.940;4.034;2022-07-10T06:47:32;17.90;99.90
52267;DHT22;38223;50.940;4.034;2022-07-10T06:50:18;18.10;99.90
52267;DHT22;38223;50.940;4.034;2022-07-10T06:52:51;17.80;99.90
52267;DHT22;38223;50.940;4.034;2022-07-10T06:55:25;17.70;99.90
52267;DHT22;38223;50.940;4.034;2022-07-10T06:58:01;17.90;99.90
52267;DHT22;38223;50.940;4.034;2022-07-10T07:00:31;17.90;99.90
52267;DHT22;38223;50.940;4.034;2022-07-10T07:03:07;17.70;99.90
52267;DHT22;38223;50.940;4.034;2022-07-10T07:05:40;17.90;99.90
52267;DHT22;38223;50.940;4.034;2022-07-10T07:08:12;18.10;99.90
52267;DHT22;38223;50.940;4.034;2022-07-10T07:10:44;18.10;99.90
52267;DHT22;38223;50.940;4.034;2022-07-10T07:13:17;18.10;99.90
52267;DHT22;38223;50.940;4.034;2022-07-10T07:15:50;18.10;99.90
52267;DHT22;38223;50.940;4.034;2022-07-10T07:21:23;18.10;99.90
52267;DHT22;38223;50.940;4.034;2022-07-10T07:24:12;17.70;99.90
52267;DHT22;38223;50.940;4.034;2022-07-10T07:26:46;17.60;99.90
52267;DHT22;38223;50.940;4.034;2022-07-10T07:29:20;17.60;99.90
52267;DHT22;38223;50.940;4.034;2022-07-10T07:31:52;17.60;99.90
52267;DHT22;38223;50.940;4.034;2022-07-10T07:34:27;17.70;99.90
52267;DHT22;38223;50.940;4.034;2022-07-10T07:37:01;17.90;99.90
52267;DHT22;38223;50.940;4.034;2022-07-10T07:39:35;18.00;99.90
52267;DHT22;38223;50.940;4.034;2022-07-10T07:42:08;17.90;99.90
52267;DHT22;38223;50.940;4.034;2022-07-10T07:44:37;17.80;99.90
52267;DHT22;38223;50.940;4.034;2022-07-10T07:47:10;17.90;99.90
52267;DHT22;38223;50.940;4.034;2022-07-10T07:49:41;18.10;99.90
52267;DHT22;38223;50.940;4.034;2022-07-10T07:52:16;18.20;99.90
52267;DHT22;38223;50.940;4.034;2022-07-10T07:54:48;18.10;99.90
52267;DHT22;38223;50.940;4.034;2022-07-10T07:57:18;17.90;99.90
52267;DHT22;38223;50.940;4.034;2022-07-10T07:59:53;18.00;99.90
52267;DHT22;38223;50.940;4.034;2022-07-10T08:02:25;18.40;99.90
52267;DHT22;38223;50.940;4.034;2022-07-10T08:05:01;18.60;99.90
52267;DHT22;38223;50.940;4.034;2022-07-10T08:07:50;18.40;99.90
52267;DHT22;38223;50.940;4.034;2022-07-10T08:10:19;18.40;99.90
52267;DHT22;38223;50.940;4.034;2022-07-10T08:12:54;18.40;99.90
52267;DHT22;38223;50.940;4.034;2022-07-10T08:15:27;18.30;99.90
52267;DHT22;38223;50.940;4.034;2022-07-10T08:18:01;18.40;99.90
52267;DHT22;38223;50.940;4.034;2022-07-10T08:20:32;18.60;99.90
52267;DHT22;38223;50.940;4.034;2022-07-10T08:23:05;18.60;99.90
52267;DHT22;38223;50.940;4.034;2022-07-10T08:25:33;18.60;99.90
52267;DHT22;38223;50.940;4.034;2022-07-10T08:28:06;18.90;99.90
52267;DHT22;38223;50.940;4.034;2022-07-10T08:30:38;19.20;99.90
52267;DHT22;38223;50.940;4.034;2022-07-10T08:33:13;19.60;99.90
52267;DHT22;38223;50.940;4.034;2022-07-10T08:35:43;19.70;99.90
52267;DHT22;38223;50.940;4.034;2022-07-10T08:38:15;19.70;99.90
52267;DHT22;38223;50.940;4.034;2022-07-10T08:40:47;19.80;99.90
52267;DHT22;38223;50.940;4.034;2022-07-10T08:43:21;19.90;99.90
52267;DHT22;38223;50.940;4.034;2022-07-10T08:45:58;20.10;99.90
52267;DHT22;38223;50.940;4.034;2022-07-10T08:48:29;20.30;99.90
52267;DHT22;38223;50.940;4.034;2022-07-10T08:51:04;20.40;99.90
52267;DHT22;38223;50.940;4.034;2022-07-10T08:53:41;20.50;99.90
52267;DHT22;38223;50.940;4.034;2022-07-10T08:56:12;20.80;99.90
52267;DHT22;38223;50.940;4.034;2022-07-10T08:58:45;20.90;99.90
52267;DHT22;38223;50.940;4.034;2022-07-10T09:01:17;20.80;99.90
52267;DHT22;38223;50.940;4.034;2022-07-10T09:03:47;20.40;99.90
52267;DHT22;38223;50.940;4.034;2022-07-10T09:06:22;20.10;99.90
52267;DHT22;38223;50.940;4.034;2022-07-10T09:09:05;20.00;99.90
52267;DHT22;38223;50.940;4.034;2022-07-10T09:11:41;20.10;99.90
52267;DHT22;38223;50.940;4.034;2022-07-10T09:14:16;20.10;99.90
52267;DHT22;38223;50.940;4.034;2022-07-10T09:16:58;20.00;99.90
52267;DHT22;38223;50.940;4.034;2022-07-10T09:19:28;20.60;99.90
52267;DHT22;38223;50.940;4.034;2022-07-10T09:22:06;21.10;99.90
52267;DHT22;38223;50.940;4.034;2022-07-10T09:24:41;21.20;99.90
52267;DHT22;38223;50.940;4.034;2022-07-10T09:27:16;21.60;99.90
52267;DHT22;38223;50.940;4.034;2022-07-10T09:29:52;21.70;99.90
52267;DHT22;38223;50.940;4.034;2022-07-10T09:32:26;21.50;99.90
52267;DHT22;38223;50.940;4.034;2022-07-10T09:34:55;21.60;99.90
52267;DHT22;38223;50.940;4.034;2022-07-10T09:37:42;21.50;99.90
52267;DHT22;38223;50.940;4.034;2022-07-10T09:40:15;21.70;99.90
52267;DHT22;38223;50.940;4.034;2022-07-10T09:42:44;21.80;99.90
52267;DHT22;38223;50.940;4.034;2022-07-10T09:45:20;21.60;99.90
52267;DHT22;38223;50.940;4.034;2022-07-10T09:47:58;21.10;99.90
52267;DHT22;38223;50.940;4.034;2022-07-10T09:50:35;21.00;99.90
52267;DHT22;38223;50.940;4.034;2022-07-10T09:53:11;21.30;99.90
52267;DHT22;38223;50.940;4.034;2022-07-10T09:55:39;21.70;99.90
52267;DHT22;38223;50.940;4.034;2022-07-10T09:58:12;21.50;99.90
52267;DHT22;38223;50.940;4.034;2022-07-10T10:00:44;21.30;99.90
52267;DHT22;38223;50.940;4.034;2022-07-10T10:03:18;21.10;99.90
52267;DHT22;38223;50.940;4.034;2022-07-10T10:05:55;20.70;99.90
52267;DHT22;38223;50.940;4.034;2022-07-10T10:11:13;21.00;99.90
52267;DHT22;38223;50.940;4.034;2022-07-10T10:13:48;21.20;99.90
52267;DHT22;38223;50.940;4.034;2022-07-10T10:16:23;21.30;99.90
52267;DHT22;38223;50.940;4.034;2022-07-10T10:18:58;21.20;99.90
52267;DHT22;38223;50.940;4.034;2022-07-10T10:21:48;21.10;99.90
52267;DHT22;38223;50.940;4.034;2022-07-10T10:24:22;21.40;99.90
52267;DHT22;38223;50.940;4.034;2022-07-10T10:26:52;21.50;99.90
52267;DHT22;38223;50.940;4.034;2022-07-10T10:29:28;21.80;99.90
52267;DHT22;38223;50.940;4.034;2022-07-10T10:32:01;22.00;99.90
52267;DHT22;38223;50.940;4.034;2022-07-10T10:34:48;22.00;99.90
52267;DHT22;38223;50.940;4.034;2022-07-10T10:37:36;21.90;99.90
52267;DHT22;38223;50.940;4.034;2022-07-10T10:40:06;21.60;99.90
52267;DHT22;38223;50.940;4.034;2022-07-10T10:42:38;21.60;99.90
52267;DHT22;38223;50.940;4.034;2022-07-10T10:45:33;21.50;99.90
52267;DHT22;38223;50.940;4.034;2022-07-10T10:48:10;21.50;99.90
52267;DHT22;38223;50.940;4.034;2022-07-10T10:50:53;21.30;99.90
52267;DHT22;38223;50.940;4.034;2022-07-10T10:53:26;21.30;99.90
52267;DHT22;38223;50.940;4.034;2022-07-10T10:58:47;21.60;99.90
52267;DHT22;38223;50.940;4.034;2022-07-10T11:01:28;21.90;99.90
52267;DHT22;38223;50.940;4.034;2022-07-10T11:04:15;22.20;99.90
52267;DHT22;38223;50.940;4.034;2022-07-10T11:06:52;22.50;99.90
52267;DHT22;38223;50.940;4.034;2022-07-10T11:09:32;22.50;99.90
52267;DHT22;38223;50.940;4.034;2022-07-10T11:12:12;22.10;99.90
52267;DHT22;38223;50.940;4.034;2022-07-10T11:14:46;22.30;99.90
52267;DHT22;38223;50.940;4.034;2022-07-10T11:17:18;22.70;99.90
52267;DHT22;38223;50.940;4.034;2022-07-10T11:19:47;23.00;99.90
52267;DHT22;38223;50.940;4.034;2022-07-10T11:22:43;22.90;99.90
52267;DHT22;38223;50.940;4.034;2022-07-10T11:28:10;22.80;99.90
52267;DHT22;38223;50.940;4.034;2022-07-10T11:30:46;23.00;99.90
52267;DHT22;38223;50.940;4.034;2022-07-10T11:33:18;22.50;99.90
52267;DHT22;38223;50.940;4.034;2022-07-10T11:35:52;22.20;99.90
52267;DHT22;38223;50.940;4.034;2022-07-10T11:38:28;22.70;99.90
52267;DHT22;38223;50.940;4.034;2022-07-10T11:40:58;22.90;99.90
52267;DHT22;38223;50.940;4.034;2022-07-10T11:43:31;23.00;99.90
52267;DHT22;38223;50.940;4.034;2022-07-10T11:46:02;22.90;99.90
52267;DHT22;38223;50.940;4.034;2022-07-10T11:48:37;23.00;99.90
52267;DHT22;38223;50.940;4.034;2022-07-10T11:51:14;23.10;99.90
52267;DHT22;38223;50.940;4.034;2022-07-10T11:53:39;22.90;99.90
52267;DHT22;38223;50.940;4.034;2022-07-10T11:56:10;22.90;99.90
52267;DHT22;38223;50.940;4.034;2022-07-10T11:58:41;23.20;99.70
52267;DHT22;38223;50.940;4.034;2022-07-10T12:01:17;23.80;98.50
52267;DHT22;38223;50.940;4.034;2022-07-10T12:03:59;23.90;98.20
52267;DHT22;38223;50.940;4.034;2022-07-10T12:06:22;23.30;98.60
52267;DHT22;38223;50.940;4.034;2022-07-10T12:08:59;22.90;99.50
52267;DHT22;38223;50.940;4.034;2022-07-10T12:11:28;22.60;99.90
52267;DHT22;38223;50.940;4.034;2022-07-10T12:14:18;22.80;99.90
52267;DHT22;38223;50.940;4.034;2022-07-10T12:16:54;23.00;99.90
52267;DHT22;38223;50.940;4.034;2022-07-10T12:19:30;23.40;99.60
52267;DHT22;38223;50.940;4.034;2022-07-10T12:21:59;23.40;99.40
52267;DHT22;38223;50.940;4.034;2022-07-10T12:24:32;23.60;99.10
52267;DHT22;38223;50.940;4.034;2022-07-10T12:27:05;23.80;99.00
52267;DHT22;38223;50.940;4.034;2022-07-10T12:29:36;24.20;98.40
52267;DHT22;38223;50.940;4.034;2022-07-10T12:32:08;24.20;98.30
52267;DHT22;38223;50.940;4.034;2022-07-10T12:34:40;23.80;98.30
52267;DHT22;38223;50.940;4.034;2022-07-10T12:37:13;23.40;99.00
52267;DHT22;38223;50.940;4.034;2022-07-10T12:39:50;23.10;99.80
52267;DHT22;38223;50.940;4.034;2022-07-10T12:42:29;23.50;99.60
52267;DHT22;38223;50.940;4.034;2022-07-10T12:45:15;23.60;99.60
52267;DHT22;38223;50.940;4.034;2022-07-10T12:47:49;23.30;99.20
52267;DHT22;38223;50.940;4.034;2022-07-10T12:50:25;23.30;99.40
52267;DHT22;38223;50.940;4.034;2022-07-10T12:53:10;23.30;99.40
52267;DHT22;38223;50.940;4.034;2022-07-10T12:55:45;23.80;98.90
52267;DHT22;38223;50.940;4.034;2022-07-10T12:58:19;24.10;98.40
52267;DHT22;38223;50.940;4.034;2022-07-10T13:00:53;23.80;98.10
52267;DHT22;38223;50.940;4.034;2022-07-10T13:03:30;23.80;98.10
52267;DHT22;38223;50.940;4.034;2022-07-10T13:06:00;23.80;98.30
52267;DHT22;38223;50.940;4.034;2022-07-10T13:08:43;23.70;98.20
52267;DHT22;38223;50.940;4.034;2022-07-10T13:11:03;23.70;98.10
52267;DHT22;38223;50.940;4.034;2022-07-10T13:13:38;24.00;98.00
52267;DHT22;38223;50.940;4.034;2022-07-10T13:16:11;23.50;98.30
52267;DHT22;38223;50.940;4.034;2022-07-10T13:18:44;23.60;98.80
52267;DHT22;38223;50.940;4.034;2022-07-10T13:21:14;23.50;97.70
52267;DHT22;38223;50.940;4.034;2022-07-10T13:23:47;23.40;97.40
52267;DHT22;38223;50.940;4.034;2022-07-10T13:26:18;23.50;97.70
52267;DHT22;38223;50.940;4.034;2022-07-10T13:28:51;23.40;97.60
52267;DHT22;38223;50.940;4.034;2022-07-10T13:31:20;23.30;98.00
52267;DHT22;38223;50.940;4.034;2022-07-10T13:33:54;23.40;98.00
52267;DHT22;38223;50.940;4.034;2022-07-10T13:36:22;23.30;97.90
52267;DHT22;38223;50.940;4.034;2022-07-10T13:38:55;23.10;98.40
52267;DHT22;38223;50.940;4.034;2022-07-10T13:41:22;23.00;98.90
52267;DHT22;38223;50.940;4.034;2022-07-10T13:43:51;22.90;99.10
52267;DHT22;38223;50.940;4.034;2022-07-10T13:46:23;23.00;98.90
52267;DHT22;38223;50.940;4.034;2022-07-10T13:48:59;23.10;98.90
52267;DHT22;38223;50.940;4.034;2022-07-10T13:51:26;23.30;98.80
52267;DHT22;38223;50.940;4.034;2022-07-10T13:53:58;23.40;98.30
52267;DHT22;38223;50.940;4.034;2022-07-10T13:56:28;23.50;97.90
52267;DHT22;38223;50.940;4.034;2022-07-10T14:01:49;23.70;97.90
52267;DHT22;38223;50.940;4.034;2022-07-10T14:04:24;23.90;97.70
52267;DHT22;38223;50.940;4.034;2022-07-10T14:06:53;23.90;97.20
52267;DHT22;38223;50.940;4.034;2022-07-10T14:09:23;23.80;97.50
52267;DHT22;38223;50.940;4.034;2022-07-10T14:11:57;23.90;96.80
52267;DHT22;38223;50.940;4.034;2022-07-10T14:14:27;23.80;97.20
52267;DHT22;38223;50.940;4.034;2022-07-10T14:19:48;23.60;97.70
52267;DHT22;38223;50.940;4.034;2022-07-10T14:22:24;23.30;97.90
52267;DHT22;38223;50.940;4.034;2022-07-10T14:24:51;23.30;98.20
52267;DHT22;38223;50.940;4.034;2022-07-10T14:27:23;23.40;98.10
52267;DHT22;38223;50.940;4.034;2022-07-10T14:29:56;23.70;97.90
52267;DHT22;38223;50.940;4.034;2022-07-10T14:32:28;23.90;97.80
52267;DHT22;38223;50.940;4.034;2022-07-10T14:34:58;23.70;98.10
52267;DHT22;38223;50.940;4.034;2022-07-10T14:37:30;23.50;97.90
52267;DHT22;38223;50.940;4.034;2022-07-10T14:40:03;23.50;97.80
52267;DHT22;38223;50.940;4.034;2022-07-10T14:42:42;23.50;97.70
52267;DHT22;38223;50.940;4.034;2022-07-10T14:45:09;23.70;97.70
52267;DHT22;38223;50.940;4.034;2022-07-10T14:47:45;23.80;97.30
52267;DHT22;38223;50.940;4.034;2022-07-10T14:50:17;24.10;96.00
52267;DHT22;38223;50.940;4.034;2022-07-10T14:52:49;24.40;95.80
52267;DHT22;38223;50.940;4.034;2022-07-10T14:55:24;24.30;96.10
52267;DHT22;38223;50.940;4.034;2022-07-10T14:57:55;23.80;96.60
52267;DHT22;38223;50.940;4.034;2022-07-10T15:00:26;23.80;97.00
52267;DHT22;38223;50.940;4.034;2022-07-10T15:03:01;23.80;97.00
52267;DHT22;38223;50.940;4.034;2022-07-10T15:05:29;24.20;96.90
52267;DHT22;38223;50.940;4.034;2022-07-10T15:07:57;24.60;96.40
52267;DHT22;38223;50.940;4.034;2022-07-10T15:10:31;24.80;95.80
52267;DHT22;38223;50.940;4.034;2022-07-10T15:13:04;24.50;95.70
52267;DHT22;38223;50.940;4.034;2022-07-10T15:15:43;24.60;95.70
52267;DHT22;38223;50.940;4.034;2022-07-10T15:18:11;24.70;95.60
52267;DHT22;38223;50.940;4.034;2022-07-10T15:20:44;25.00;95.20
52267;DHT22;38223;50.940;4.034;2022-07-10T15:26:07;24.70;94.80
52267;DHT22;38223;50.940;4.034;2022-07-10T15:28:41;24.10;95.40
52267;DHT22;38223;50.940;4.034;2022-07-10T15:31:09;23.90;96.00
52267;DHT22;38223;50.940;4.034;2022-07-10T15:33:45;23.80;96.50
52267;DHT22;38223;50.940;4.034;2022-07-10T15:36:16;23.90;96.30
52267;DHT22;38223;50.940;4.034;2022-07-10T15:38:48;24.00;96.00
52267;DHT22;38223;50.940;4.034;2022-07-10T15:41:20;24.10;96.00
52267;DHT22;38223;50.940;4.034;2022-07-10T15:43:52;24.30;96.10
52267;DHT22;38223;50.940;4.034;2022-07-10T15:46:21;24.30;95.70
52267;DHT22;38223;50.940;4.034;2022-07-10T15:48:54;24.30;95.40
52267;DHT22;38223;50.940;4.034;2022-07-10T15:51:25;24.40;95.10
52267;DHT22;38223;50.940;4.034;2022-07-10T15:53:59;24.40;95.20
52267;DHT22;38223;50.940;4.034;2022-07-10T15:56:33;24.30;95.20
52267;DHT22;38223;50.940;4.034;2022-07-10T15:59:03;24.30;95.20
52267;DHT22;38223;50.940;4.034;2022-07-10T16:01:38;24.40;95.10
52267;DHT22;38223;50.940;4.034;2022-07-10T16:04:09;24.30;94.90
52267;DHT22;38223;50.940;4.034;2022-07-10T16:06:41;24.30;94.60
52267;DHT22;38223;50.940;4.034;2022-07-10T16:09:13;24.10;94.50
52267;DHT22;38223;50.940;4.034;2022-07-10T16:11:48;23.90;95.00
52267;DHT22;38223;50.940;4.034;2022-07-10T16:14:17;23.90;94.90
52267;DHT22;38223;50.940;4.034;2022-07-10T16:16:49;23.90;94.90
52267;DHT22;38223;50.940;4.034;2022-07-10T16:19:22;23.90;94.30
52267;DHT22;38223;50.940;4.034;2022-07-10T16:21:55;23.60;94.30
52267;DHT22;38223;50.940;4.034;2022-07-10T16:24:32;23.60;94.40
52267;DHT22;38223;50.940;4.034;2022-07-10T16:27:01;23.50;94.40
52267;DHT22;38223;50.940;4.034;2022-07-10T16:29:38;23.50;94.60